CBR9 weather

Anchor 9 Ranch Airport
Bottrel, Alberta, Canada

Public forecast

Using degrees Celsius for public forecast. Weather courtesy of forecast.io.

METAR (pilot weather report)

Closest report is Calgary / Springbank Airport, 20.1 nm (37.3 km) SSE. Retrieved 2019/07/22 17:00 UTC (28 minutes ago):

CYBW 221700Z AUTO 33003KT 260V070 9SM CLR 20/13 A3015 RMK SLP208 DENSITY ALT 5100FT

TAF (pilot weather forecast)

Closest forecast is Calgary / Springbank Airport, 20.1 nm (37.3 km) SSE. Retrieved 2019/07/22 12:42 UTC (5 hours ago):

TAF CYBW 221138Z 2212/2224 VRB03KT P6SM SKC TEMPO 2212/2213 2SM BR BECMG 2216/2218 15008KT FM222200 15010KT P6SM SCT120 SCT220 TEMPO 2222/2224 BKN120 BKN220 RMK FCST BASED ON AUTO OBS. NXT FCST BY 221800Z